Time;durP1;ratioP1;P1;durP2;ratioP2;P2;SDS_P1;SDS_P2;PMS_P1;PMS_P2;Temp;Humidity;BMP_temperature;BMP_pressure;BME280_temperature;BME280_humidity;BME280_pressure;Samples;Min_cycle;Max_cycle;Signal;HPM_P1;HPM_P2
2022/01/13 00:00:33;;;;;;;6.20;4.50;;;21.40;64.30;;;;;;7748012;28;20199;-57
2022/01/13 00:04:19;;;;;;;7.20;4.35;;;21.30;64.30;;;;;;7747962;28;20227;-57
2022/01/13 00:08:05;;;;;;;5.28;3.88;;;21.30;64.30;;;;;;7766624;28;20234;-58
2022/01/13 00:11:51;;;;;;;6.95;4.63;;;21.30;64.40;;;;;;7778000;28;20272;-57
2022/01/13 00:19:34;;;;;;;6.25;4.72;;;21.20;64.30;;;;;;7773684;28;20740;-58
2022/01/13 00:23:41;;;;;;;7.93;4.10;;;21.20;64.30;;;;;;7747668;28;20191;-58
2022/01/13 00:27:28;;;;;;;5.43;4.38;;;21.20;64.30;;;;;;7747384;28;20673;-57
2022/01/13 00:31:17;;;;;;;9.43;4.47;;;21.20;64.40;;;;;;7747379;28;20207;-57
2022/01/13 00:35:03;;;;;;;5.47;4.30;;;21.20;64.50;;;;;;7747143;28;20179;-57
2022/01/13 00:38:49;;;;;;;9.20;4.63;;;21.20;64.50;;;;;;7746802;28;20191;-58
2022/01/13 00:42:34;;;;;;;5.13;4.32;;;21.10;64.40;;;;;;7746895;28;20184;-59
2022/01/13 00:46:25;;;;;;;6.43;4.90;;;21.10;64.50;;;;;;7746818;28;20180;-58
2022/01/13 00:50:11;;;;;;;6.10;4.32;;;21.10;64.50;;;;;;7746407;28;20590;-59
2022/01/13 00:54:03;;;;;;;8.68;4.25;;;21.10;64.50;;;;;;7746761;28;20215;-58
2022/01/13 00:57:48;;;;;;;11.13;4.57;;;21.00;64.60;;;;;;7746401;28;20206;-58
2022/01/13 01:01:36;;;;;;;8.77;4.65;;;21.00;64.70;;;;;;7746479;28;20212;-59
2022/01/13 01:05:21;;;;;;;6.47;4.40;;;21.00;64.70;;;;;;7746319;28;20606;-58
2022/01/13 01:09:14;;;;;;;6.72;4.50;;;20.90;64.70;;;;;;7745910;28;20223;-58
2022/01/13 01:13:09;;;;;;;6.38;4.80;;;20.90;64.70;;;;;;7746549;28;20187;-58
2022/01/13 01:16:54;;;;;;;6.53;4.00;;;20.90;64.80;;;;;;7746314;28;20179;-59
2022/01/13 01:20:50;;;;;;;8.07;3.70;;;20.90;64.90;;;;;;7746008;28;20200;-59
2022/01/13 01:25:00;;;;;;;6.68;4.40;;;20.90;65.00;;;;;;7741750;28;20196;-58
2022/01/13 01:28:52;;;;;;;5.05;3.55;;;20.90;65.00;;;;;;7741998;28;20215;-57
2022/01/13 01:32:38;;;;;;;5.93;3.72;;;20.90;65.00;;;;;;7744847;28;20184;-57
2022/01/13 01:36:24;;;;;;;5.07;3.88;;;20.80;65.00;;;;;;7748899;28;20232;-58
2022/01/13 01:40:11;;;;;;;4.05;3.58;;;20.90;65.10;;;;;;7748504;28;20206;-58
2022/01/13 01:44:01;;;;;;;6.05;3.80;;;20.90;65.20;;;;;;7749028;28;20188;-57
2022/01/13 01:47:50;;;;;;;6.63;3.50;;;20.80;65.60;;;;;;7748209;28;20302;-57
2022/01/13 01:51:36;;;;;;;3.80;3.10;;;20.80;65.30;;;;;;7748330;28;20574;-59
2022/01/13 01:55:21;;;;;;;4.28;3.30;;;20.90;65.40;;;;;;7750184;28;20216;-57
2022/01/13 01:59:11;;;;;;;5.82;2.85;;;20.80;65.30;;;;;;7751430;28;20335;-58
2022/01/13 02:02:56;;;;;;;3.78;2.92;;;20.90;65.50;;;;;;7751563;28;20179;-58
2022/01/13 02:06:45;;;;;;;2.75;2.40;;;20.90;65.50;;;;;;7751429;28;20203;-56
2022/01/13 02:10:31;;;;;;;3.83;2.92;;;20.90;65.50;;;;;;7750848;28;20294;-57
2022/01/13 02:18:11;;;;;;;3.70;2.63;;;20.90;65.60;;;;;;7750843;28;20605;-60
2022/01/13 02:21:57;;;;;;;4.95;2.63;;;20.80;65.60;;;;;;7750992;28;20566;-59
2022/01/13 02:25:42;;;;;;;3.05;2.50;;;20.80;65.60;;;;;;7751549;28;20180;-60
2022/01/13 02:29:28;;;;;;;3.78;2.58;;;20.80;65.60;;;;;;7750426;28;20704;-59
2022/01/13 02:33:13;;;;;;;3.55;2.70;;;20.80;65.50;;;;;;7750695;28;20180;-60
2022/01/13 02:36:59;;;;;;;4.47;2.60;;;20.80;65.60;;;;;;7750546;28;20192;-61
2022/01/13 02:40:52;;;;;;;3.35;2.38;;;20.80;65.60;;;;;;7750118;28;20195;-61
2022/01/13 02:44:48;;;;;;;3.00;2.50;;;20.80;65.70;;;;;;7749965;28;20184;-61
2022/01/13 02:48:35;;;;;;;3.85;2.45;;;20.80;65.80;;;;;;7750061;28;20302;-60
2022/01/13 02:52:20;;;;;;;3.42;2.40;;;20.80;65.80;;;;;;7750152;28;20179;-61
2022/01/13 02:56:06;;;;;;;3.35;2.50;;;20.80;66.70;;;;;;7750134;28;20646;-59
2022/01/13 02:59:52;;;;;;;4.80;2.20;;;20.80;65.80;;;;;;7749709;28;20196;-59
2022/01/13 03:03:39;;;;;;;5.25;2.35;;;20.80;65.80;;;;;;7749929;28;20179;-59
2022/01/13 03:07:25;;;;;;;4.68;2.50;;;20.80;65.80;;;;;;7749892;28;20212;-61
2022/01/13 03:11:11;;;;;;;3.17;2.47;;;20.80;65.80;;;;;;7749905;28;20246;-61
2022/01/13 03:14:57;;;;;;;2.78;2.25;;;20.70;65.90;;;;;;7750127;28;20179;-60
2022/01/13 03:18:42;;;;;;;3.20;2.17;;;20.70;65.90;;;;;;7749569;28;20637;-60
2022/01/13 03:22:28;;;;;;;3.38;2.40;;;20.70;65.90;;;;;;7749598;28;20188;-59
2022/01/13 03:26:14;;;;;;;5.18;2.47;;;20.70;66.00;;;;;;7749321;28;20263;-60
2022/01/13 03:30:01;;;;;;;3.10;2.20;;;20.70;66.00;;;;;;7748752;28;20287;-58
2022/01/13 03:33:47;;;;;;;2.40;2.20;;;20.70;65.90;;;;;;7748970;28;20180;-59
2022/01/13 03:37:33;;;;;;;4.13;2.30;;;20.60;65.90;;;;;;7748621;28;20180;-60
2022/01/13 03:41:19;;;;;;;3.42;2.10;;;20.70;66.00;;;;;;7748762;28;20204;-58
2022/01/13 03:45:05;;;;;;;2.85;1.90;;;20.70;66.00;;;;;;7748653;28;20236;-59
2022/01/13 03:48:51;;;;;;;3.97;2.25;;;20.70;66.10;;;;;;7748154;28;20251;-60
2022/01/13 03:53:37;;;;;;;2.83;2.05;;;20.60;66.00;;;;;;7748397;28;20829;-59
2022/01/13 03:58:19;;;;;;;2.13;1.55;;;20.60;66.10;;;;;;7747599;28;20187;-59
2022/01/13 04:02:13;;;;;;;3.15;2.10;;;20.60;66.10;;;;;;7747982;28;20270;-59
2022/01/13 04:06:07;;;;;;;2.85;2.10;;;20.60;66.20;;;;;;7748004;28;20234;-61
2022/01/13 04:09:55;;;;;;;1.98;1.85;;;20.60;66.20;;;;;;7762412;28;20219;-60
2022/01/13 04:17:30;;;;;;;2.92;1.70;;;20.50;66.20;;;;;;7747533;28;20172;-61
2022/01/13 04:21:18;;;;;;;1.95;1.60;;;20.60;66.30;;;;;;7747529;28;20214;-60
2022/01/13 04:25:05;;;;;;;2.58;1.98;;;20.60;66.40;;;;;;7747531;28;20243;-60
2022/01/13 04:29:00;;;;;;;2.58;1.90;;;20.60;66.40;;;;;;7746918;28;20575;-60
2022/01/13 04:32:45;;;;;;;2.78;1.80;;;20.60;66.50;;;;;;7747548;28;20226;-60
2022/01/13 04:36:31;;;;;;;1.73;1.60;;;20.50;66.40;;;;;;7747247;28;20241;-61
2022/01/13 04:40:17;;;;;;;1.95;1.50;;;20.50;66.50;;;;;;7746880;28;20594;-61
2022/01/13 04:44:11;;;;;;;2.65;1.55;;;20.50;66.40;;;;;;7747112;28;20646;-60
2022/01/13 04:47:57;;;;;;;1.70;1.60;;;20.50;66.50;;;;;;7746568;28;20689;-61
2022/01/13 04:51:42;;;;;;;2.78;1.50;;;20.50;66.50;;;;;;7747088;28;20924;-61
2022/01/13 04:55:31;;;;;;;2.47;1.73;;;20.50;66.50;;;;;;7747035;28;20511;-59
2022/01/13 04:59:17;;;;;;;1.70;1.55;;;20.50;66.50;;;;;;7746750;28;20226;-61
2022/01/13 05:03:03;;;;;;;2.83;1.70;;;20.50;66.50;;;;;;7746763;28;20180;-61
2022/01/13 05:06:48;;;;;;;1.52;1.40;;;20.50;66.50;;;;;;7745629;28;20274;-61
2022/01/13 05:10:34;;;;;;;2.28;1.50;;;20.50;66.50;;;;;;7746056;28;20208;-61
2022/01/13 05:14:19;;;;;;;1.92;1.58;;;20.50;66.50;;;;;;7746306;28;20172;-61
2022/01/13 05:18:19;;;;;;;3.25;1.83;;;20.50;66.50;;;;;;7746273;28;20199;-59
2022/01/13 05:25:56;;;;;;;1.70;1.30;;;20.50;66.50;;;;;;7746298;28;20263;-60
2022/01/13 05:29:41;;;;;;;4.00;1.80;;;20.50;66.60;;;;;;7745699;28;20218;-58
2022/01/13 05:33:27;;;;;;;4.85;1.70;;;20.50;66.60;;;;;;7756337;28;20391;-59
2022/01/13 05:37:12;;;;;;;5.28;1.52;;;20.50;66.60;;;;;;7775208;28;20237;-58
2022/01/13 05:40:58;;;;;;;4.82;1.77;;;20.50;66.40;;;;;;7775183;28;20243;-59
2022/01/13 05:44:44;;;;;;;21.95;2.22;;;20.50;66.50;;;;;;7774833;28;20552;-61
2022/01/13 05:48:31;;;;;;;11.90;1.95;;;20.50;66.70;;;;;;7770368;28;20226;-54
2022/01/13 05:52:16;;;;;;;13.35;2.53;;;20.50;66.20;;;;;;7770269;28;20218;-57
2022/01/13 05:56:02;;;;;;;11.65;1.70;;;20.50;66.80;;;;;;7774862;28;20171;-58
2022/01/13 05:59:47;;;;;;;12.27;1.83;;;20.50;66.80;;;;;;7775400;28;20568;-57
2022/01/13 06:03:33;;;;;;;10.65;2.25;;;20.60;66.80;;;;;;7774764;28;20183;-58
2022/01/13 06:07:19;;;;;;;21.60;1.95;;;20.60;66.20;;;;;;7775034;28;20564;-57
2022/01/13 06:11:04;;;;;;;6.35;1.90;;;20.60;66.10;;;;;;7774508;28;20273;-57
2022/01/13 06:14:50;;;;;;;3.38;1.65;;;20.50;65.60;;;;;;7774770;28;20194;-58
2022/01/13 06:18:35;;;;;;;9.15;1.75;;;20.50;65.70;;;;;;7776934;28;20187;-56
2022/01/13 06:22:21;;;;;;;10.00;1.85;;;20.50;66.00;;;;;;7780630;28;20179;-59
2022/01/13 06:26:06;;;;;;;15.73;2.00;;;20.50;66.30;;;;;;7780087;28;20750;-55
2022/01/13 06:29:53;;;;;;;14.05;1.92;;;20.60;66.60;;;;;;7779513;28;20223;-58
2022/01/13 06:33:38;;;;;;;36.80;2.83;;;20.60;66.80;;;;;;7780115;28;20176;-58
2022/01/13 06:37:24;;;;;;;27.30;2.60;;;20.60;67.00;;;;;;7780657;28;20191;-56
2022/01/13 06:41:09;;;;;;;16.48;1.75;;;20.60;67.10;;;;;;7779516;28;20191;-58
2022/01/13 06:44:56;;;;;;;17.35;1.65;;;20.60;67.10;;;;;;7779760;28;20211;-59
2022/01/13 06:48:43;;;;;;;11.88;1.98;;;20.60;67.00;;;;;;7779652;28;20681;-58
2022/01/13 06:52:28;;;;;;;11.77;1.73;;;20.50;67.10;;;;;;7779690;28;20183;-59
2022/01/13 06:56:14;;;;;;;7.63;1.65;;;20.60;67.20;;;;;;7779520;28;20211;-60
2022/01/13 06:59:59;;;;;;;16.75;1.88;;;20.60;67.40;;;;;;7779288;28;20341;-58
2022/01/13 07:03:45;;;;;;;11.30;2.17;;;20.60;67.50;;;;;;7779002;28;20194;-60
2022/01/13 07:07:36;;;;;;;10.68;2.00;;;20.60;67.40;;;;;;7778519;28;20207;-60
2022/01/13 07:11:21;;;;;;;11.98;1.80;;;20.60;67.40;;;;;;7778842;28;20549;-60
2022/01/13 07:15:08;;;;;;;16.25;2.70;;;20.60;67.40;;;;;;7778507;28;20564;-60
2022/01/13 07:18:53;;;;;;;9.02;1.98;;;20.60;67.40;;;;;;7778411;28;20246;-60
2022/01/13 07:22:40;;;;;;;11.23;2.00;;;20.60;67.40;;;;;;7778941;28;20274;-59
2022/01/13 07:26:26;;;;;;;9.65;1.85;;;20.60;68.50;;;;;;7778120;28;20194;-56
2022/01/13 07:30:12;;;;;;;8.75;1.80;;;20.60;67.90;;;;;;7776969;28;20207;-57
2022/01/13 07:33:57;;;;;;;18.17;1.73;;;20.60;67.70;;;;;;7778222;28;20188;-57
2022/01/13 07:37:43;;;;;;;31.48;1.95;;;20.60;67.70;;;;;;7773477;28;20198;-57
2022/01/13 07:41:28;;;;;;;28.25;2.35;;;20.60;67.70;;;;;;7777975;28;20270;-58
2022/01/13 07:45:16;;;;;;;40.30;3.25;;;20.70;67.40;;;;;;7777696;28;20230;-58
2022/01/13 07:49:02;;;;;;;20.92;2.58;;;20.60;67.20;;;;;;7777641;28;20261;-55
2022/01/13 07:52:48;;;;;;;25.08;3.33;;;20.60;66.80;;;;;;7775786;28;20187;-57
2022/01/13 07:56:34;;;;;;;24.00;3.90;;;20.60;67.10;;;;;;7777661;28;20225;-58
2022/01/13 08:00:19;;;;;;;32.88;11.65;;;20.70;67.40;;;;;;7777336;28;20227;-58
2022/01/13 08:04:05;;;;;;;41.35;14.55;;;20.70;67.60;;;;;;7777269;28;20766;-60
2022/01/13 08:07:50;;;;;;;39.92;14.27;;;20.70;67.70;;;;;;7776838;28;20214;-58
2022/01/13 08:11:36;;;;;;;25.73;14.68;;;20.70;67.60;;;;;;7777157;28;20688;-58
2022/01/13 08:15:22;;;;;;;26.83;14.00;;;20.80;67.50;;;;;;7776940;28;20266;-58
2022/01/13 08:23:12;;;;;;;24.90;12.00;;;20.80;67.40;;;;;;7777011;28;20568;-58
2022/01/13 08:26:58;;;;;;;27.55;11.68;;;20.80;67.30;;;;;;7776601;28;20237;-58
2022/01/13 08:30:44;;;;;;;31.83;11.82;;;20.90;67.50;;;;;;7776561;28;20256;-57
2022/01/13 08:34:29;;;;;;;25.92;10.38;;;20.90;67.40;;;;;;7764205;28;20551;-57
2022/01/13 08:38:19;;;;;;;22.83;9.65;;;20.90;67.30;;;;;;7746324;28;20187;-57
2022/01/13 08:42:05;;;;;;;26.52;9.80;;;20.90;67.30;;;;;;7775457;28;20547;-59
2022/01/13 08:45:50;;;;;;;38.45;10.30;;;20.90;67.30;;;;;;7776374;28;20187;-59
2022/01/13 08:49:37;;;;;;;22.40;9.88;;;21.00;67.20;;;;;;7776315;28;20924;-59
2022/01/13 08:53:22;;;;;;;30.77;9.80;;;21.00;66.70;;;;;;7774522;28;20176;-58
2022/01/13 08:57:08;;;;;;;25.63;9.60;;;21.10;67.20;;;;;;7775956;28;20673;-58
2022/01/13 09:00:55;;;;;;;23.38;9.63;;;21.10;67.40;;;;;;7784059;28;20209;-59
2022/01/13 09:04:41;;;;;;;23.50;9.68;;;21.20;67.40;;;;;;7784909;28;20754;-60
2022/01/13 09:08:26;;;;;;;35.15;9.75;;;21.20;67.30;;;;;;7775412;28;20207;-60
2022/01/13 09:12:12;;;;;;;25.90;8.07;;;21.20;67.10;;;;;;7775799;28;20981;-59
2022/01/13 09:15:59;;;;;;;35.88;8.68;;;21.30;67.60;;;;;;7775387;28;20184;-58
2022/01/13 09:19:45;;;;;;;399.42;26.67;;;21.30;67.40;;;;;;7775413;28;20207;-60
2022/01/13 09:23:35;;;;;;;155.10;13.75;;;21.40;67.50;;;;;;7775243;28;20202;-60
2022/01/13 09:27:21;;;;;;;133.27;12.40;;;21.40;67.00;;;;;;7775436;28;20621;-57
2022/01/13 09:31:07;;;;;;;114.35;13.80;;;21.40;66.40;;;;;;7775215;28;20223;-57
2022/01/13 09:34:52;;;;;;;83.65;9.52;;;21.40;64.90;;;;;;7769466;28;20254;-58
2022/01/13 09:38:38;;;;;;;101.20;11.40;;;21.40;65.10;;;;;;7744898;28;20175;-56
2022/01/13 09:42:26;;;;;;;80.70;13.40;;;21.50;65.80;;;;;;7745005;28;20180;-58
2022/01/13 09:46:11;;;;;;;57.45;14.02;;;21.50;66.40;;;;;;7754228;28;20191;-56
2022/01/13 09:50:00;;;;;;;70.32;12.73;;;21.50;66.60;;;;;;7774863;28;20227;-58
2022/01/13 09:53:46;;;;;;;41.97;11.70;;;21.50;66.70;;;;;;7775941;28;20681;-59
2022/01/13 09:57:31;;;;;;;57.17;11.73;;;21.60;66.70;;;;;;7778207;28;20901;-59
2022/01/13 10:01:17;;;;;;;47.40;12.63;;;21.60;66.20;;;;;;7750573;28;20319;-58
2022/01/13 10:05:04;;;;;;;61.40;10.20;;;21.50;65.50;;;;;;7775177;28;20187;-57
2022/01/13 10:08:53;;;;;;;51.17;9.50;;;21.50;66.10;;;;;;7780529;28;20206;-55
2022/01/13 10:12:41;;;;;;;33.38;9.25;;;21.50;67.20;;;;;;7780792;28;20183;-56
2022/01/13 10:16:28;;;;;;;42.10;9.40;;;21.50;66.10;;;;;;7779973;28;20250;-58
2022/01/13 10:20:16;;;;;;;36.72;8.85;;;21.60;65.90;;;;;;7780961;28;20199;-58
2022/01/13 10:24:12;;;;;;;25.73;8.63;;;21.60;66.10;;;;;;7780632;28;20626;-56
2022/01/13 10:28:16;;;;;;;22.75;8.10;;;21.50;66.00;;;;;;7780583;28;20226;-57
2022/01/13 10:32:02;;;;;;;20.80;7.97;;;21.60;65.80;;;;;;7780870;28;20206;-56
2022/01/13 10:35:50;;;;;;;22.60;6.88;;;21.60;65.50;;;;;;7779878;28;20175;-59
2022/01/13 10:40:11;;;;;;;26.73;7.45;;;21.60;65.60;;;;;;7776383;28;20211;-56
2022/01/13 10:44:20;;;;;;;30.17;9.90;;;21.70;66.40;;;;;;7779704;28;20191;-58
2022/01/13 10:48:22;;;;;;;29.05;7.10;;;21.70;64.80;;;;;;7779364;28;20212;-59
2022/01/13 10:52:25;;;;;;;33.47;7.90;;;21.80;65.10;;;;;;7779801;28;20199;-60
2022/01/13 10:56:17;;;;;;;35.72;9.82;;;21.80;66.20;;;;;;7779375;28;20270;-57
2022/01/13 11:00:05;;;;;;;50.75;9.65;;;21.80;66.20;;;;;;7779506;28;20222;-57
2022/01/13 11:03:53;;;;;;;58.38;10.70;;;21.90;67.00;;;;;;7778587;28;20179;-59
2022/01/13 11:07:43;;;;;;;41.05;10.13;;;22.00;67.50;;;;;;7778578;28;20573;-58
2022/01/13 11:11:33;;;;;;;46.80;11.40;;;22.00;65.80;;;;;;7777861;28;20215;-60
2022/01/13 11:15:18;;;;;;;49.55;11.82;;;22.00;66.80;;;;;;7778611;28;20226;-59
2022/01/13 11:19:05;;;;;;;43.78;10.90;;;22.10;66.90;;;;;;7778522;28;20203;-58
2022/01/13 11:22:54;;;;;;;31.75;11.00;;;22.10;68.50;;;;;;7779058;28;20667;-60
2022/01/13 11:26:41;;;;;;;46.50;11.55;;;22.20;69.40;;;;;;7778004;28;20189;-59
2022/01/13 11:30:27;;;;;;;35.75;9.60;;;22.30;67.40;;;;;;7778305;28;20214;-58
2022/01/13 11:34:16;;;;;;;39.08;8.63;;;22.40;69.10;;;;;;7778286;28;20597;-56
2022/01/13 11:38:05;;;;;;;40.00;9.52;;;22.40;69.10;;;;;;7777975;28;20546;-55
2022/01/13 11:42:03;;;;;;;34.10;7.50;;;22.40;68.90;;;;;;7778103;28;20234;-60
2022/01/13 11:45:48;;;;;;;35.17;7.18;;;22.40;66.80;;;;;;7777598;28;20183;-57
2022/01/13 11:53:41;;;;;;;21.92;5.93;;;22.30;68.70;;;;;;7777855;28;20175;-57
2022/01/13 11:57:29;;;;;;;18.35;5.47;;;22.30;65.00;;;;;;7777578;28;20279;-57
2022/01/13 12:01:21;;;;;;;16.73;4.75;;;22.00;60.30;;;;;;7777772;28;20700;-56
2022/01/13 12:05:17;;;;;;;13.35;4.53;;;21.60;60.00;;;;;;7777050;28;20217;-58
2022/01/13 12:09:06;;;;;;;13.60;3.67;;;21.50;63.20;;;;;;7777194;28;20203;-56
2022/01/13 12:12:52;;;;;;;11.50;4.03;;;21.60;65.80;;;;;;7777351;28;20194;-57
2022/01/13 12:16:57;;;;;;;13.73;3.40;;;21.70;65.50;;;;;;7776242;28;20187;-55
2022/01/13 12:21:08;;;;;;;10.88;3.33;;;21.60;61.90;;;;;;7768932;28;20238;-57
2022/01/13 12:24:57;;;;;;;12.00;3.20;;;21.60;65.80;;;;;;7776729;28;20218;-56
2022/01/13 12:29:09;;;;;;;12.13;3.50;;;21.80;67.10;;;;;;7776537;28;20215;-57
2022/01/13 12:33:03;;;;;;;7.30;3.15;;;21.90;66.90;;;;;;7776578;28;20179;-59
2022/01/13 12:36:49;;;;;;;10.23;2.97;;;22.00;66.90;;;;;;7775948;28;20547;-57
2022/01/13 12:41:15;;;;;;;10.20;2.63;;;22.20;67.10;;;;;;7773847;28;20235;-56
2022/01/13 12:49:07;;;;;;;15.85;2.80;;;22.50;67.20;;;;;;7776307;28;20226;-57
2022/01/13 12:52:58;;;;;;;9.55;2.55;;;22.50;67.20;;;;;;7776203;28;20602;-60
2022/01/13 12:56:43;;;;;;;11.75;2.97;;;22.80;67.40;;;;;;7775738;28;20186;-58
2022/01/13 13:00:29;;;;;;;9.38;2.30;;;22.90;67.40;;;;;;7775914;28;20199;-57
2022/01/13 13:04:15;;;;;;;8.77;2.80;;;23.00;67.40;;;;;;7775669;28;20172;-58
2022/01/13 13:08:00;;;;;;;7.18;2.47;;;23.10;67.40;;;;;;7774817;28;20203;-57
2022/01/13 13:11:51;;;;;;;5.35;2.60;;;23.20;67.50;;;;;;7774510;28;20261;-55
2022/01/13 13:19:22;;;;;;;12.05;2.80;;;23.30;67.70;;;;;;7775336;28;20195;-57
2022/01/13 13:23:10;;;;;;;8.07;2.10;;;23.30;67.70;;;;;;7775763;28;20588;-59
2022/01/13 13:26:55;;;;;;;9.60;2.92;;;23.30;67.80;;;;;;7774380;28;20230;-59
2022/01/13 13:30:45;;;;;;;11.10;2.60;;;23.30;68.10;;;;;;7775015;28;20230;-59
2022/01/13 13:34:32;;;;;;;16.42;3.05;;;23.30;68.20;;;;;;7775135;28;20174;-58
2022/01/13 13:38:18;;;;;;;6.75;2.38;;;23.30;68.20;;;;;;7775660;28;20175;-57
2022/01/13 13:42:03;;;;;;;10.82;3.47;;;23.30;69.20;;;;;;7773005;28;20211;-59
2022/01/13 13:45:59;;;;;;;6.32;2.15;;;23.30;68.60;;;;;;7774650;28;20258;-57
2022/01/13 13:49:47;;;;;;;9.65;2.42;;;23.30;68.40;;;;;;7774552;28;20618;-57
2022/01/13 13:53:33;;;;;;;9.13;2.42;;;23.20;68.60;;;;;;7763582;28;20242;-57
2022/01/13 13:57:26;;;;;;;10.32;2.45;;;23.30;68.70;;;;;;7762492;28;20191;-55
2022/01/13 14:01:16;;;;;;;9.88;3.10;;;23.20;68.40;;;;;;7774901;28;20199;-57
2022/01/13 14:05:07;;;;;;;14.57;3.03;;;23.20;68.60;;;;;;7774399;28;20539;-57
2022/01/13 14:08:54;;;;;;;11.30;3.00;;;23.20;68.70;;;;;;7774457;28;20727;-57
2022/01/13 14:12:52;;;;;;;14.00;2.50;;;23.20;68.70;;;;;;7774864;28;20266;-55
2022/01/13 14:16:37;;;;;;;11.77;2.75;;;23.10;68.80;;;;;;7774374;28;20266;-58
2022/01/13 14:20:28;;;;;;;11.35;2.70;;;23.10;69.00;;;;;;7774730;28;20198;-57
2022/01/13 14:24:35;;;;;;;8.68;2.72;;;23.10;69.10;;;;;;7774475;28;20184;-57
2022/01/13 14:28:21;;;;;;;13.23;2.47;;;23.00;69.00;;;;;;7773946;28;20200;-57
2022/01/13 14:32:21;;;;;;;10.15;3.20;;;23.10;70.00;;;;;;7774859;28;20278;-56
2022/01/13 14:36:16;;;;;;;4.78;2.00;;;23.00;69.10;;;;;;7775248;28;20183;-57
2022/01/13 14:40:11;;;;;;;8.25;3.03;;;23.00;69.20;;;;;;7775526;28;20199;-55
2022/01/13 14:44:02;;;;;;;11.05;2.45;;;22.90;69.00;;;;;;7780953;28;20176;-57
2022/01/13 14:47:49;;;;;;;17.35;2.80;;;22.90;69.00;;;;;;7780429;28;20211;-54
2022/01/13 14:51:37;;;;;;;4.53;2.45;;;22.90;69.10;;;;;;7780592;28;20199;-57
2022/01/13 14:55:23;;;;;;;9.57;2.15;;;22.80;68.90;;;;;;7780546;28;20182;-55
2022/01/13 14:59:09;;;;;;;5.75;2.20;;;22.80;68.80;;;;;;7779959;28;20203;-55
2022/01/13 15:02:55;;;;;;;7.40;2.10;;;22.90;68.90;;;;;;7780281;28;20191;-57
2022/01/13 15:06:41;;;;;;;4.05;2.00;;;22.90;68.70;;;;;;7780164;28;20222;-59
2022/01/13 15:10:28;;;;;;;8.27;3.40;;;23.00;68.70;;;;;;7779578;28;20309;-58
2022/01/13 15:14:14;;;;;;;12.77;3.88;;;22.80;60.20;;;;;;7780015;28;20179;-59
2022/01/13 15:18:01;;;;;;;26.13;4.47;;;22.30;59.90;;;;;;7779566;28;20680;-55
2022/01/13 15:21:47;;;;;;;14.45;3.55;;;22.10;66.60;;;;;;7779691;28;20207;-56
2022/01/13 15:25:32;;;;;;;12.18;3.22;;;22.10;63.40;;;;;;7779571;28;20649;-56
2022/01/13 15:29:18;;;;;;;28.90;6.28;;;22.20;64.80;;;;;;7779025;28;20711;-59
2022/01/13 15:33:04;;;;;;;45.40;5.82;;;22.10;59.10;;;;;;7779675;28;20179;-60
2022/01/13 15:36:49;;;;;;;41.72;5.03;;;21.90;63.00;;;;;;7779646;28;20199;-58
2022/01/13 15:40:35;;;;;;;33.92;4.88;;;22.20;63.70;;;;;;7779110;28;20226;-60
2022/01/13 15:44:20;;;;;;;20.45;4.38;;;22.40;63.70;;;;;;7779480;28;20187;-58
2022/01/13 15:48:06;;;;;;;23.65;4.00;;;22.60;63.90;;;;;;7779212;28;20264;-59
2022/01/13 15:51:52;;;;;;;43.90;5.78;;;22.70;63.70;;;;;;7776882;28;20416;-57
2022/01/13 15:55:38;;;;;;;22.85;3.90;;;22.50;64.80;;;;;;7778927;28;20202;-59
2022/01/13 15:59:24;;;;;;;27.48;4.25;;;22.50;62.40;;;;;;7777705;28;20474;-57
2022/01/13 16:03:09;;;;;;;19.33;3.75;;;22.50;64.20;;;;;;7778868;28;20676;-58
2022/01/13 16:06:56;;;;;;;40.90;4.63;;;22.60;64.50;;;;;;7778338;28;20202;-58
2022/01/13 16:10:41;;;;;;;33.88;4.47;;;22.70;64.80;;;;;;7777786;28;20214;-57
2022/01/13 16:14:33;;;;;;;25.23;3.15;;;22.90;65.00;;;;;;7763846;28;20195;-58
2022/01/13 16:18:18;;;;;;;32.92;4.05;;;23.00;65.30;;;;;;7747380;28;20659;-59
2022/01/13 16:22:04;;;;;;;26.67;3.47;;;23.10;65.70;;;;;;7747390;28;20200;-57
2022/01/13 16:25:51;;;;;;;32.80;4.20;;;23.20;65.80;;;;;;7769384;28;20688;-57
2022/01/13 16:29:55;;;;;;;31.45;4.28;;;23.20;66.10;;;;;;7777280;28;20617;-57
2022/01/13 16:33:41;;;;;;;37.70;4.18;;;23.30;66.30;;;;;;7777446;28;20183;-56
2022/01/13 16:37:27;;;;;;;35.13;4.43;;;23.30;66.40;;;;;;7778118;28;20191;-56
2022/01/13 16:41:13;;;;;;;33.10;3.47;;;23.30;66.70;;;;;;7777701;28;20203;-55
2022/01/13 16:44:58;;;;;;;28.20;3.55;;;23.30;66.70;;;;;;7777775;28;20237;-63
2022/01/13 16:48:44;;;;;;;17.95;3.05;;;23.30;66.60;;;;;;7776840;28;20246;-55
2022/01/13 16:52:31;;;;;;;19.10;3.50;;;23.10;59.00;;;;;;7777683;28;20298;-57
2022/01/13 16:56:16;;;;;;;33.53;3.53;;;22.70;60.70;;;;;;7777585;28;20203;-55
2022/01/13 17:00:06;;;;;;;31.95;2.90;;;22.60;62.40;;;;;;7776736;28;20206;-57
2022/01/13 17:03:52;;;;;;;15.70;2.63;;;22.60;63.00;;;;;;7776854;28;20641;-57
2022/01/13 17:07:37;;;;;;;25.65;3.15;;;22.60;63.20;;;;;;7776697;28;20635;-58
2022/01/13 17:11:23;;;;;;;12.90;2.25;;;22.60;63.30;;;;;;7776770;28;20816;-59
2022/01/13 17:15:09;;;;;;;29.35;3.92;;;22.70;63.40;;;;;;7776417;28;20649;-59
2022/01/13 17:18:55;;;;;;;37.78;6.53;;;22.70;63.50;;;;;;7762935;28;20187;-60
2022/01/13 17:22:40;;;;;;;47.25;10.68;;;22.60;61.70;;;;;;7775606;28;20270;-60
2022/01/13 17:26:26;;;;;;;31.95;8.27;;;22.60;62.00;;;;;;7776130;28;20176;-58
2022/01/13 17:30:15;;;;;;;36.08;6.18;;;22.60;63.00;;;;;;7775352;28;20290;-59
2022/01/13 17:34:02;;;;;;;39.38;5.57;;;22.70;63.50;;;;;;7776326;28;20182;-59
2022/01/13 17:37:52;;;;;;;25.63;5.38;;;22.80;62.00;;;;;;7776349;28;20186;-59
2022/01/13 17:41:37;;;;;;;58.25;16.95;;;22.90;62.90;;;;;;7776662;28;20214;-60
2022/01/13 17:45:23;;;;;;;39.10;9.40;;;23.00;63.50;;;;;;7776748;28;20176;-58
2022/01/13 17:49:09;;;;;;;81.07;23.98;;;23.20;63.60;;;;;;7775865;28;20207;-58
2022/01/13 17:52:56;;;;;;;39.92;11.93;;;23.30;63.60;;;;;;7775412;28;20186;-55
2022/01/13 17:56:42;;;;;;;47.15;12.50;;;23.40;63.80;;;;;;7775370;28;20208;-58
2022/01/13 18:00:28;;;;;;;37.80;9.50;;;23.30;63.30;;;;;;7774494;28;20203;-58
2022/01/13 18:04:13;;;;;;;27.38;8.95;;;23.40;64.00;;;;;;7765967;28;20191;-59
2022/01/13 18:07:59;;;;;;;33.10;11.00;;;23.50;63.90;;;;;;7764073;28;20215;-58
2022/01/13 18:11:44;;;;;;;36.28;9.60;;;23.50;63.60;;;;;;7774616;28;20215;-58
2022/01/13 18:15:30;;;;;;;38.20;11.77;;;23.50;63.60;;;;;;7779511;28;20191;-58
2022/01/13 18:19:16;;;;;;;31.95;10.13;;;23.60;63.00;;;;;;7781082;28;20215;-57
2022/01/13 18:23:02;;;;;;;34.17;8.60;;;23.60;63.00;;;;;;7781446;28;20266;-59
2022/01/13 18:26:48;;;;;;;35.33;10.02;;;23.50;63.40;;;;;;7781251;28;20831;-58
2022/01/13 18:30:34;;;;;;;34.03;9.27;;;23.50;62.70;;;;;;7779939;28;20219;-56
2022/01/13 18:34:19;;;;;;;27.30;8.32;;;23.50;62.70;;;;;;7781153;28;20172;-58
2022/01/13 18:38:09;;;;;;;27.38;8.07;;;23.50;62.80;;;;;;7780752;28;20180;-57
2022/01/13 18:41:55;;;;;;;27.33;8.50;;;23.50;62.60;;;;;;7780680;28;20191;-58
2022/01/13 18:45:48;;;;;;;27.60;7.68;;;23.50;62.40;;;;;;7780660;28;20187;-58
2022/01/13 18:49:33;;;;;;;19.13;7.45;;;23.40;62.20;;;;;;7751556;28;20294;-58
2022/01/13 18:53:19;;;;;;;24.98;7.53;;;23.40;62.20;;;;;;7759981;28;20187;-55
2022/01/13 18:57:06;;;;;;;21.95;6.30;;;23.40;62.00;;;;;;7777096;28;20190;-60
2022/01/13 19:00:51;;;;;;;17.35;6.10;;;23.40;62.80;;;;;;7778921;28;20199;-58
2022/01/13 19:04:37;;;;;;;20.27;6.20;;;23.30;63.00;;;;;;7758608;28;20188;-59
2022/01/13 19:08:23;;;;;;;36.15;6.68;;;23.30;63.70;;;;;;7774787;28;20215;-59
2022/01/13 19:12:08;;;;;;;25.98;5.28;;;23.30;64.00;;;;;;7778348;28;20751;-56
2022/01/13 19:15:55;;;;;;;21.55;5.78;;;23.30;65.00;;;;;;7778932;28;20602;-57
2022/01/13 19:19:45;;;;;;;23.00;6.28;;;23.30;65.20;;;;;;7777932;28;20361;-57
2022/01/13 19:23:38;;;;;;;20.92;5.80;;;23.40;65.60;;;;;;7778472;28;20187;-59
2022/01/13 19:27:24;;;;;;;23.20;5.60;;;23.40;65.60;;;;;;7777509;28;20203;-59
2022/01/13 19:31:09;;;;;;;18.65;5.57;;;23.40;65.00;;;;;;7777726;28;20183;-59
2022/01/13 19:34:55;;;;;;;23.73;5.43;;;23.40;65.50;;;;;;7778911;28;20521;-59
2022/01/13 19:38:40;;;;;;;28.95;6.22;;;23.50;65.70;;;;;;7778397;28;20179;-55
2022/01/13 19:42:26;;;;;;;16.83;5.38;;;23.60;65.80;;;;;;7792513;28;20232;-59
2022/01/13 19:46:12;;;;;;;25.70;5.60;;;23.70;65.80;;;;;;7808888;28;20201;-57
2022/01/13 19:49:57;;;;;;;23.55;5.07;;;23.80;65.80;;;;;;7801790;28;20246;-58
2022/01/13 19:53:48;;;;;;;27.95;5.78;;;23.90;65.70;;;;;;7777547;28;20187;-56
2022/01/13 19:57:34;;;;;;;23.65;4.88;;;24.00;65.80;;;;;;7777300;28;20183;-58
2022/01/13 20:01:19;;;;;;;24.02;5.55;;;24.10;65.90;;;;;;7777315;28;20219;-57
2022/01/13 20:05:06;;;;;;;15.88;4.72;;;24.10;66.00;;;;;;7777387;28;20183;-57